Terminal Aerodrome Forecast
Issued by NWS

Home | Current Version | Previous Version | Text Only | Print | Product List | Glossary On
Versions: 1 2 3 4 5 6 7 8 9 10 11 12
756
FTUS46 KHNX 221725
TAFFAT
TAF
KFAT 221725Z 2218/2318 31011KT P6SM -SHRA SCT050 OVC100
      TEMPO 2218/2222 3SM SHRA BR BKN050
     FM230300 31007KT P6SM SCT050 BKN120=

USA.gov is the U.S. government's official web portal to all federal, state and local government web resources and services.